createdAt,value
2018-11-29T00:01:16.608Z,100446.95
2018-11-29T00:03:47.050Z,100449.72
2018-11-29T00:06:17.423Z,100445.42
2018-11-29T00:08:47.543Z,100451.20
2018-11-29T00:11:17.599Z,100442.05
2018-11-29T00:13:48.074Z,100435.27
2018-11-29T00:16:18.087Z,100435.11
2018-11-29T00:18:48.419Z,100436.02
2018-11-29T00:21:18.590Z,100431.55
2018-11-29T00:23:48.604Z,100426.90
2018-11-29T00:26:19.159Z,100417.80
2018-11-29T00:28:49.083Z,100422.15
2018-11-29T00:31:19.114Z,100411.64
2018-11-29T00:33:55.735Z,100410.19
2018-11-29T00:36:25.679Z,100406.20
2018-11-29T00:38:55.526Z,100410.45
2018-11-29T00:41:25.852Z,100408.73
2018-11-29T00:43:56.007Z,100416.58
2018-11-29T00:46:26.229Z,100417.24
2018-11-29T00:48:55.932Z,100422.44
2018-11-29T00:51:25.866Z,100432.69
2018-11-29T00:53:55.804Z,100440.27
2018-11-29T00:56:25.700Z,100433.35
2018-11-29T00:58:55.470Z,100442.84
2018-11-29T01:01:25.515Z,100441.64
2018-11-29T01:03:55.309Z,100441.08
2018-11-29T01:06:25.270Z,100433.50
2018-11-29T01:08:56.372Z,100436.02
2018-11-29T01:11:26.382Z,100432.38
2018-11-29T01:13:56.167Z,100434.72
2018-11-29T01:16:26.158Z,100435.94
2018-11-29T01:18:55.960Z,100439.34
2018-11-29T01:21:26.097Z,100430.20
2018-11-29T01:23:55.794Z,100430.52
2018-11-29T01:26:25.650Z,100430.20
2018-11-29T01:28:56.327Z,100430.94
2018-11-29T01:31:26.961Z,100420.54
2018-11-29T01:33:56.758Z,100413.63
2018-11-29T01:36:26.832Z,100426.34
2018-11-29T01:38:57.697Z,100438.09
2018-11-29T01:41:27.647Z,100444.37
2018-11-29T01:43:57.367Z,100450.45
2018-11-29T01:46:27.107Z,100454.94
2018-11-29T01:48:57.109Z,100446.11
2018-11-29T01:51:27.228Z,100447.02
2018-11-29T01:53:57.830Z,100448.66
2018-11-29T01:56:27.659Z,100459.59
2018-11-29T01:58:58.168Z,100467.67
2018-11-29T02:01:28.093Z,100456.87
2018-11-29T02:03:57.968Z,100454.76
2018-11-29T02:06:27.949Z,100460.39
2018-11-29T02:08:59.394Z,100465.75
2018-11-29T02:11:30.228Z,100451.44
2018-11-29T02:13:59.968Z,100447.98
2018-11-29T02:16:29.955Z,100443.33
2018-11-29T02:19:00.184Z,100443.17
2018-11-29T02:21:30.772Z,100430.17
2018-11-29T02:24:01.176Z,100433.58
2018-11-29T02:26:31.125Z,100429.47
2018-11-29T02:29:01.245Z,100430.26
2018-11-29T02:31:38.871Z,100420.54
2018-11-29T02:34:08.942Z,100420.59
2018-11-29T02:36:38.667Z,100418.25
2018-11-29T02:39:10.038Z,100413.57
2018-11-29T02:41:39.980Z,100415.18
2018-11-29T02:44:09.952Z,100415.84
2018-11-29T02:46:39.723Z,100409.23
2018-11-29T02:49:09.447Z,100419.31
2018-11-29T02:51:39.249Z,100409.66
2018-11-29T02:54:09.470Z,100405.80
2018-11-29T02:56:39.280Z,100406.89
2018-11-29T02:59:09.111Z,100403.24
2018-11-29T03:01:39.078Z,100396.29
2018-11-29T03:04:08.819Z,100389.14
2018-11-29T03:06:39.515Z,100397.94
2018-11-29T03:09:09.608Z,100400.08
2018-11-29T03:11:42.547Z,100401.20
2018-11-29T03:14:12.333Z,100404.13
2018-11-29T03:16:42.074Z,100402.59
2018-11-29T03:19:12.128Z,100409.28
2018-11-29T03:21:41.850Z,100404.13
2018-11-29T03:24:11.633Z,100404.03
2018-11-29T03:26:41.393Z,100409.25
2018-11-29T03:29:11.235Z,100399.03
2018-11-29T03:31:41.351Z,100402.21
2018-11-29T03:34:11.053Z,100400.27
2018-11-29T03:36:40.771Z,100412.05
2018-11-29T03:39:10.899Z,100407.81
2018-11-29T03:41:41.087Z,100406.73
2018-11-29T03:44:11.323Z,100404.03
2018-11-29T03:46:41.357Z,100403.27
2018-11-29T03:49:13.568Z,100407.19
2018-11-29T03:51:43.500Z,100410.33
2018-11-29T03:54:13.254Z,100406.84
2018-11-29T03:56:43.107Z,100404.77
2018-11-29T03:59:13.128Z,100409.05
2018-11-29T04:01:42.838Z,100404.86
2018-11-29T04:04:12.804Z,100404.42
2018-11-29T04:06:42.507Z,100404.03
2018-11-29T04:09:12.412Z,100402.91
2018-11-29T04:11:42.518Z,100405.52
2018-11-29T04:14:12.262Z,100400.39
2018-11-29T04:16:42.681Z,100399.69
2018-11-29T04:19:12.506Z,100400.81
2018-11-29T04:21:43.041Z,100395.80
2018-11-29T04:24:12.709Z,100399.18
2018-11-29T04:26:42.718Z,100390.31
2018-11-29T04:29:12.526Z,100394.39
2018-11-29T04:31:42.633Z,100389.36
2018-11-29T04:34:13.012Z,100391.95
2018-11-29T04:36:43.276Z,100394.47
2018-11-29T04:39:13.458Z,100386.94
2018-11-29T04:41:43.189Z,100384.12
2018-11-29T04:44:12.906Z,100374.17
2018-11-29T04:46:47.857Z,100385.61
2018-11-29T04:49:18.090Z,100380.02
2018-11-29T04:51:48.503Z,100373.17
2018-11-29T04:54:18.611Z,100372.73
2018-11-29T04:56:48.740Z,100375.29
2018-11-29T04:59:18.888Z,100371.22
2018-11-29T05:01:49.721Z,100369.44
2018-11-29T05:04:20.036Z,100367.73
2018-11-29T05:06:49.786Z,100362.25
2018-11-29T05:09:19.698Z,100370.18
2018-11-29T05:11:49.525Z,100371.14
2018-11-29T05:14:19.383Z,100381.77
2018-11-29T05:16:49.261Z,100369.94
2018-11-29T05:19:19.773Z,100359.37
2018-11-29T05:21:49.748Z,100365.94
2018-11-29T05:24:19.692Z,100360.23
2018-11-29T05:26:49.431Z,100364.58
2018-11-29T05:29:20.001Z,100360.20
2018-11-29T05:31:50.367Z,100353.82
2018-11-29T05:34:20.102Z,100363.38
2018-11-29T05:36:49.880Z,100368.36
2018-11-29T05:39:20.312Z,100364.19
2018-11-29T05:41:50.366Z,100363.11
2018-11-29T05:44:20.675Z,100361.89
2018-11-29T05:46:50.487Z,100362.33
2018-11-29T05:49:20.333Z,100352.37
2018-11-29T05:51:50.177Z,100353.62
2018-11-29T05:54:20.596Z,100369.28
2018-11-29T05:56:50.506Z,100355.71
2018-11-29T05:59:20.811Z,100364.06
2018-11-29T06:01:51.906Z,100363.47
2018-11-29T06:04:21.614Z,100359.13
2018-11-29T06:06:51.367Z,100366.66
2018-11-29T06:09:21.678Z,100364.88
2018-11-29T06:11:51.581Z,100360.41
2018-11-29T06:14:21.512Z,100365.69
2018-11-29T06:16:51.591Z,100361.97
2018-11-29T06:19:21.637Z,100361.75
2018-11-29T06:21:51.631Z,100359.78
2018-11-29T06:24:21.452Z,100362.19
2018-11-29T06:26:51.241Z,100364.55
2018-11-29T06:29:21.055Z,100362.14
2018-11-29T06:31:51.653Z,100360.69
2018-11-29T06:34:21.581Z,100364.40
2018-11-29T06:36:51.891Z,100356.68
2018-11-29T06:39:22.127Z,100358.34
2018-11-29T06:41:52.081Z,100353.58
2018-11-29T06:44:22.037Z,100358.17
2018-11-29T06:46:51.846Z,100348.05
2018-11-29T06:49:21.671Z,100346.61
2018-11-29T06:51:51.670Z,100341.83
2018-11-29T06:54:21.555Z,100344.05
2018-11-29T06:56:51.361Z,100339.95
2018-11-29T06:59:21.487Z,100333.36
2018-11-29T07:01:51.469Z,100336.23
2018-11-29T07:04:21.308Z,100342.06
2018-11-29T07:06:51.313Z,100340.74
2018-11-29T07:09:21.090Z,100339.01
2018-11-29T07:11:51.627Z,100345.93
2018-11-29T07:14:21.446Z,100345.31
2018-11-29T07:16:51.532Z,100348.77
2018-11-29T07:19:21.463Z,100340.59
2018-11-29T07:21:53.846Z,100334.18
2018-11-29T07:24:24.683Z,100332.97
2018-11-29T07:26:54.661Z,100335.70
2018-11-29T07:29:24.619Z,100332.61
2018-11-29T07:31:54.482Z,100335.77
2018-11-29T07:34:24.365Z,100334.73
2018-11-29T07:36:54.449Z,100328.91
2018-11-29T07:39:25.025Z,100329.55
2018-11-29T07:41:54.981Z,100319.92
2018-11-29T07:44:24.729Z,100318.26
2018-11-29T07:46:54.702Z,100317.42
2018-11-29T07:49:24.520Z,100314.05
2018-11-29T07:51:54.392Z,100306.77
2018-11-29T07:54:24.166Z,100314.70
2018-11-29T07:56:54.372Z,100320.23
2018-11-29T07:59:24.215Z,100309.20
2018-11-29T08:01:54.691Z,100300.71
2018-11-29T08:04:24.621Z,100304.20
2018-11-29T08:06:55.138Z,100303.24
2018-11-29T08:09:25.183Z,100308.61
2018-11-29T08:11:55.365Z,100301.02
2018-11-29T08:14:25.171Z,100303.88
2018-11-29T08:16:55.276Z,100306.05
2018-11-29T08:19:25.146Z,100301.88
2018-11-29T08:21:55.320Z,100306.27
2018-11-29T08:24:25.359Z,100306.41
2018-11-29T08:26:56.432Z,100295.53
2018-11-29T08:29:26.244Z,100299.50
2018-11-29T08:31:57.151Z,100304.59
2018-11-29T08:34:28.236Z,100292.42
2018-11-29T08:36:58.264Z,100297.05
2018-11-29T08:39:28.607Z,100295.78
2018-11-29T08:41:58.417Z,100300.20
2018-11-29T08:44:28.214Z,100286.78
2018-11-29T08:46:58.195Z,100285.25
2018-11-29T08:49:28.085Z,100278.53
2018-11-29T08:51:58.242Z,100289.03
2018-11-29T08:54:28.080Z,100279.85
2018-11-29T08:56:58.202Z,100279.60
2018-11-29T08:59:28.219Z,100291.70
2018-11-29T09:01:58.467Z,100289.23
2018-11-29T09:04:28.882Z,100282.16
2018-11-29T09:06:59.276Z,100274.93
2018-11-29T09:09:29.143Z,100278.83
2018-11-29T09:11:59.496Z,100275.07
2018-11-29T09:14:29.336Z,100272.42
2018-11-29T09:16:59.699Z,100277.76
2018-11-29T09:19:29.606Z,100269.31
2018-11-29T09:21:59.905Z,100267.75
2018-11-29T09:24:29.839Z,100268.80
2018-11-29T09:27:00.502Z,100261.88
2018-11-29T09:29:30.591Z,100272.74
2018-11-29T09:32:01.311Z,100275.59
2018-11-29T09:34:31.235Z,100279.27
2018-11-29T09:37:01.258Z,100274.73
2018-11-29T09:39:31.144Z,100280.22
2018-11-29T09:42:02.953Z,100278.81
2018-11-29T09:44:31.470Z,100265.00
2018-11-29T09:47:01.711Z,100255.18
2018-11-29T09:49:31.722Z,100257.56
2018-11-29T09:52:02.176Z,100244.99
2018-11-29T09:54:32.000Z,100239.50
2018-11-29T09:57:02.038Z,100240.66
2018-11-29T09:59:32.607Z,100238.92
2018-11-29T10:02:02.959Z,100243.20
2018-11-29T10:04:32.700Z,100250.54
2018-11-29T10:07:03.236Z,100237.91
2018-11-29T10:09:33.032Z,100242.84
2018-11-29T10:12:03.367Z,100241.62
2018-11-29T10:14:33.539Z,100236.61
2018-11-29T10:17:04.565Z,100240.14
2018-11-29T10:19:34.363Z,100242.03
2018-11-29T10:22:04.646Z,100251.70
2018-11-29T10:24:34.416Z,100244.33
2018-11-29T10:27:04.884Z,100247.69
2018-11-29T10:29:35.125Z,100247.70
2018-11-29T10:32:05.481Z,100243.15
2018-11-29T10:34:35.342Z,100240.63
2018-11-29T10:37:05.312Z,100233.50
2018-11-29T10:39:35.336Z,100241.26
2018-11-29T10:42:05.320Z,100245.16
2018-11-29T10:44:35.115Z,100236.55
2018-11-29T10:47:05.119Z,100238.16
2018-11-29T10:49:35.012Z,100237.45
2018-11-29T10:52:05.187Z,100232.06
2018-11-29T10:54:35.003Z,100238.16
2018-11-29T10:57:05.404Z,100241.42
2018-11-29T10:59:35.741Z,100234.05
2018-11-29T11:02:10.951Z,100233.96
2018-11-29T11:04:40.904Z,100226.82
2018-11-29T11:07:11.140Z,100217.80
2018-11-29T11:09:41.164Z,100206.87
2018-11-29T11:12:10.945Z,100210.41
2018-11-29T11:14:40.716Z,100204.51
2018-11-29T11:17:10.464Z,100208.72
2018-11-29T11:19:40.220Z,100201.20
2018-11-29T11:22:10.264Z,100203.53
2018-11-29T11:24:40.026Z,100200.97
2018-11-29T11:27:09.850Z,100191.58
2018-11-29T11:29:40.872Z,100184.73
2018-11-29T11:32:10.775Z,100183.01
2018-11-29T11:34:40.531Z,100178.38
2018-11-29T11:37:10.733Z,100177.81
2018-11-29T11:39:40.629Z,100167.44
2018-11-29T11:42:10.790Z,100168.89
2018-11-29T11:44:41.192Z,100156.70
2018-11-29T11:47:10.961Z,100152.16
2018-11-29T11:49:40.733Z,100146.48
2018-11-29T11:52:10.907Z,100146.99
2018-11-29T11:54:40.596Z,100149.25
2018-11-29T11:57:12.713Z,100145.75
2018-11-29T11:59:42.485Z,100140.02
2018-11-29T12:02:12.486Z,100127.20
2018-11-29T12:04:42.363Z,100131.72
2018-11-29T12:07:12.477Z,100119.89
2018-11-29T12:09:42.247Z,100120.39
2018-11-29T12:12:12.960Z,100110.01
2018-11-29T12:14:43.370Z,100109.78
2018-11-29T12:17:13.620Z,100096.95
2018-11-29T12:19:43.489Z,100098.16
2018-11-29T12:22:13.560Z,100098.98
2018-11-29T12:24:43.413Z,100105.49
2018-11-29T12:27:13.666Z,100104.98
2018-11-29T12:29:43.574Z,100098.16
2018-11-29T12:32:13.839Z,100090.30
2018-11-29T12:34:43.686Z,100073.58
2018-11-29T12:37:13.935Z,100067.96
2018-11-29T12:39:43.698Z,100069.81
2018-11-29T12:42:13.722Z,100060.22
2018-11-29T12:44:43.599Z,100055.41
2018-11-29T12:47:13.835Z,100051.02
2018-11-29T12:49:43.799Z,100046.83
2018-11-29T12:52:13.793Z,100044.48
2018-11-29T12:54:43.655Z,100036.66
2018-11-29T12:57:13.914Z,100031.35
2018-11-29T12:59:43.775Z,100025.59
2018-11-29T13:02:14.639Z,100032.47
2018-11-29T13:04:44.427Z,100029.68
2018-11-29T13:07:14.795Z,100028.47
2018-11-29T13:09:44.856Z,100042.65
2018-11-29T13:12:16.309Z,100036.43
2018-11-29T13:14:46.239Z,100035.40
2018-11-29T13:17:16.463Z,100033.67
2018-11-29T13:19:46.454Z,100031.41
2018-11-29T13:22:17.030Z,100033.54
2018-11-29T13:24:47.098Z,100036.11
2018-11-29T13:27:17.247Z,100039.26
2018-11-29T13:29:47.383Z,100036.21
2018-11-29T13:32:17.664Z,100040.21
2018-11-29T13:34:47.818Z,100026.73
2018-11-29T13:37:18.518Z,100025.50
2018-11-29T13:39:48.500Z,100026.02
2018-11-29T13:42:19.778Z,100023.78
2018-11-29T13:44:49.964Z,100022.88
2018-11-29T13:47:20.719Z,100028.59
2018-11-29T13:49:50.819Z,100022.16
2018-11-29T13:52:20.799Z,100020.02
2018-11-29T13:54:50.653Z,100013.59
2018-11-29T13:57:20.910Z,100003.39
2018-11-29T13:59:50.995Z,99990.14
2018-11-29T14:02:21.938Z,99992.90
2018-11-29T14:04:52.079Z,99993.50
2018-11-29T14:07:22.416Z,99981.59
2018-11-29T14:09:52.350Z,99973.72
2018-11-29T14:12:22.137Z,99966.79
2018-11-29T14:14:52.003Z,99972.80
2018-11-29T14:17:22.891Z,99961.51
2018-11-29T14:19:53.319Z,99950.69
2018-11-29T14:22:23.238Z,99946.63
2018-11-29T14:24:53.186Z,99935.81
2018-11-29T14:27:23.214Z,99925.42
2018-11-29T14:29:53.235Z,99918.98
2018-11-29T14:32:23.392Z,99915.33
2018-11-29T14:34:53.775Z,99923.05
2018-11-29T14:37:24.843Z,99901.37
2018-11-29T14:39:55.014Z,99905.55
2018-11-29T14:42:24.933Z,99904.40
2018-11-29T14:44:55.398Z,99893.91
2018-11-29T14:47:26.199Z,99881.58
2018-11-29T14:49:56.666Z,99895.06
2018-11-29T14:52:26.744Z,99880.75
2018-11-29T14:54:56.690Z,99872.20
2018-11-29T14:57:26.798Z,99855.99
2018-11-29T14:59:57.533Z,99853.25
2018-11-29T15:02:27.865Z,99845.92
2018-11-29T15:04:58.692Z,99838.67
2018-11-29T15:07:28.582Z,99840.72
2018-11-29T15:09:58.469Z,99836.23
2018-11-29T15:12:28.684Z,99824.01
2018-11-29T15:14:58.448Z,99836.97
2018-11-29T15:17:28.302Z,99833.83
2018-11-29T15:19:58.138Z,99828.61
2018-11-29T15:22:27.990Z,99816.58
2018-11-29T15:24:57.818Z,99787.55
2018-11-29T15:27:28.577Z,99798.24
2018-11-29T15:29:58.442Z,99783.88
2018-11-29T15:32:28.316Z,99777.71
2018-11-29T15:34:58.137Z,99777.83
2018-11-29T15:37:28.303Z,99768.33
2018-11-29T15:39:58.147Z,99782.77
2018-11-29T15:42:28.539Z,99793.59
2018-11-29T15:44:58.432Z,99792.67
2018-11-29T15:47:28.691Z,99800.45
2018-11-29T15:49:58.947Z,99783.28
2018-11-29T15:52:29.130Z,99793.20
2018-11-29T15:54:58.942Z,99804.97
2018-11-29T15:57:34.682Z,99822.31
2018-11-29T16:00:00.284Z,99859.13
2018-11-29T16:02:30.135Z,99873.33
2018-11-29T16:05:00.036Z,99872.53
2018-11-29T16:07:30.275Z,99856.92
2018-11-29T16:10:00.109Z,99864.67
2018-11-29T16:12:30.155Z,99864.68
2018-11-29T16:15:00.072Z,99851.80
2018-11-29T16:17:30.653Z,99845.02
2018-11-29T16:20:00.745Z,99856.41
2018-11-29T16:22:30.947Z,99834.59
2018-11-29T16:25:01.041Z,99856.42
2018-11-29T16:27:31.029Z,99849.20
2018-11-29T16:30:01.548Z,99837.38
2018-11-29T16:32:31.745Z,99828.42
2018-11-29T16:35:01.594Z,99824.53
2018-11-29T16:37:32.028Z,99809.77
2018-11-29T16:40:01.955Z,99789.80
2018-11-29T16:42:32.195Z,99768.28
2018-11-29T16:45:02.063Z,99755.81
2018-11-29T16:47:32.183Z,99739.28
2018-11-29T16:50:01.911Z,99721.63
2018-11-29T16:52:32.383Z,99722.98
2018-11-29T16:55:02.371Z,99718.34
2018-11-29T16:57:32.558Z,99702.59
2018-11-29T17:00:02.239Z,99705.72
2018-11-29T17:02:32.437Z,99717.97
2018-11-29T17:05:02.297Z,99721.64
2018-11-29T17:07:32.576Z,99755.67
2018-11-29T17:10:02.567Z,99766.97
2018-11-29T17:12:32.859Z,99770.44
2018-11-29T17:15:02.684Z,99772.89
2018-11-29T17:17:32.939Z,99776.16
2018-11-29T17:20:03.286Z,99787.14
2018-11-29T17:22:33.766Z,99795.52
2018-11-29T17:25:03.865Z,99806.79
2018-11-29T17:27:34.333Z,99821.27
2018-11-29T17:30:04.326Z,99845.02
2018-11-29T17:32:34.716Z,99834.41
2018-11-29T17:35:04.743Z,99848.77
2018-11-29T17:37:35.051Z,99837.17
2018-11-29T17:40:07.377Z,99837.15
2018-11-29T17:42:37.630Z,99842.66
2018-11-29T17:45:11.887Z,99843.91
2018-11-29T17:47:43.486Z,99861.30
2018-11-29T17:50:25.392Z,99868.56
2018-11-29T17:52:55.214Z,99864.89
2018-11-29T17:55:25.267Z,99860.31
2018-11-29T17:57:55.081Z,99871.80
2018-11-29T18:00:27.897Z,99871.60
2018-11-29T18:02:58.342Z,99879.14
2018-11-29T18:05:28.186Z,99871.81
2018-11-29T18:07:58.151Z,99867.93
2018-11-29T18:10:32.403Z,99852.55
2018-11-29T18:13:19.028Z,99838.08
2018-11-29T18:15:48.774Z,99843.30
2018-11-29T18:18:18.826Z,99843.69
2018-11-29T18:20:48.846Z,99835.86
2018-11-29T18:23:18.835Z,99842.77
2018-11-29T18:25:48.763Z,99844.20
2018-11-29T18:28:18.663Z,99842.14
2018-11-29T18:30:48.591Z,99838.57
2018-11-29T18:33:18.587Z,99819.22
2018-11-29T18:35:49.505Z,99818.47
2018-11-29T18:38:19.378Z,99818.41
2018-11-29T18:40:49.234Z,99818.44
2018-11-29T18:43:19.138Z,99810.49
2018-11-29T18:45:49.088Z,99804.48
2018-11-29T18:48:19.418Z,99812.84
2018-11-29T18:50:49.456Z,99813.00
2018-11-29T18:53:20.082Z,99804.97
2018-11-29T18:55:50.241Z,99801.80
2018-11-29T18:58:20.411Z,99793.48
2018-11-29T19:00:50.589Z,99788.88
2018-11-29T19:03:21.270Z,99788.88
2018-11-29T19:05:52.029Z,99784.91
2018-11-29T19:08:22.197Z,99780.30
2018-11-29T19:10:52.262Z,99788.98
2018-11-29T19:13:22.417Z,99788.77
2018-11-29T19:15:53.342Z,99794.77
2018-11-29T19:18:23.346Z,99797.34
2018-11-29T19:20:53.678Z,99800.70
2018-11-29T19:23:23.524Z,99805.81
2018-11-29T19:25:54.042Z,99806.22
2018-11-29T19:28:24.799Z,99812.81
2018-11-29T19:30:54.821Z,99814.25
2018-11-29T19:33:27.017Z,99811.67
2018-11-29T19:35:57.519Z,99812.78
2018-11-29T19:38:28.112Z,99805.74
2018-11-29T19:40:58.156Z,99813.11
2018-11-29T19:43:27.930Z,99819.41
2018-11-29T19:45:57.841Z,99824.38
2018-11-29T19:48:27.957Z,99837.19
2018-11-29T19:50:58.220Z,99833.75
2018-11-29T19:53:28.520Z,99833.65
2018-11-29T19:56:01.617Z,99833.45
2018-11-29T19:58:32.214Z,99834.05
2018-11-29T20:01:02.213Z,99828.80
2018-11-29T20:03:32.388Z,99828.17
2018-11-29T20:06:02.310Z,99832.66
2018-11-29T20:08:32.532Z,99842.64
2018-11-29T20:11:02.551Z,99841.55
2018-11-29T20:13:32.586Z,99838.19
2018-11-29T20:16:02.820Z,99847.84
2018-11-29T20:18:32.818Z,99844.70
2018-11-29T20:21:03.098Z,99844.71
2018-11-29T20:23:33.247Z,99847.95
2018-11-29T20:26:03.479Z,99850.21
2018-11-29T20:28:34.304Z,99847.66
2018-11-29T20:31:04.626Z,99836.56
2018-11-29T20:33:34.882Z,99835.95
2018-11-29T20:36:05.018Z,99830.92
2018-11-29T20:38:35.189Z,99828.79
2018-11-29T20:41:05.648Z,99825.74
2018-11-29T20:43:36.404Z,99827.98
2018-11-29T20:46:06.728Z,99825.84
2018-11-29T20:48:37.330Z,99823.41
2018-11-29T20:51:07.756Z,99824.81
2018-11-29T20:53:40.437Z,99831.35
2018-11-29T20:56:15.280Z,99821.87
2018-11-29T20:58:45.541Z,99828.41
2018-11-29T21:01:15.823Z,99839.18
2018-11-29T21:03:46.257Z,99836.27
2018-11-29T21:06:16.299Z,99835.41
2018-11-29T21:08:46.502Z,99828.09
2018-11-29T21:11:16.801Z,99821.57
2018-11-29T21:13:46.894Z,99821.57
2018-11-29T21:16:17.362Z,99819.13
2018-11-29T21:18:47.642Z,99815.57
2018-11-29T21:21:17.655Z,99808.63
2018-11-29T21:23:47.716Z,99809.95
2018-11-29T21:26:17.964Z,99829.92
2018-11-29T21:28:48.514Z,99828.41
2018-11-29T21:31:18.870Z,99836.34
2018-11-29T21:33:49.185Z,99837.88
2018-11-29T21:36:19.249Z,99840.02
2018-11-29T21:38:49.864Z,99835.44
2018-11-29T21:41:20.751Z,99836.85
2018-11-29T21:43:51.219Z,99838.58
2018-11-29T21:46:21.833Z,99841.13
2018-11-29T21:48:52.563Z,99838.99
2018-11-29T21:51:22.883Z,99834.28
2018-11-29T21:53:53.569Z,99835.83
2018-11-29T21:56:24.143Z,99834.18
2018-11-29T21:58:54.704Z,99826.73
2018-11-29T22:01:25.140Z,99822.87
2018-11-29T22:03:55.386Z,99819.59
2018-11-29T22:06:26.102Z,99809.52
2018-11-29T22:08:56.379Z,99809.70
2018-11-29T22:11:26.668Z,99809.52
2018-11-29T22:13:56.646Z,99816.55
2018-11-29T22:16:26.960Z,99818.91
2018-11-29T22:18:56.909Z,99820.11
2018-11-29T22:21:26.967Z,99820.31
2018-11-29T22:23:57.099Z,99817.66
2018-11-29T22:26:27.634Z,99814.36
2018-11-29T22:29:00.677Z,99804.19
2018-11-29T22:31:27.550Z,99804.08
2018-11-29T22:33:57.898Z,99814.49
2018-11-29T22:36:27.863Z,99819.39
2018-11-29T22:38:58.584Z,99815.63
2018-11-29T22:41:28.577Z,99819.69
2018-11-29T22:43:58.865Z,99815.33
2018-11-29T22:46:28.889Z,99823.58
2018-11-29T22:48:59.203Z,99815.84
2018-11-29T22:51:28.942Z,99822.55
2018-11-29T22:53:59.049Z,99817.77
2018-11-29T22:56:28.912Z,99832.47
2018-11-29T22:58:59.030Z,99830.95
2018-11-29T23:01:29.334Z,99838.69
2018-11-29T23:03:59.439Z,99833.26
2018-11-29T23:06:29.513Z,99834.48
2018-11-29T23:09:00.123Z,99831.67
2018-11-29T23:11:30.907Z,99834.02
2018-11-29T23:14:01.137Z,99819.33
2018-11-29T23:16:31.102Z,99820.58
2018-11-29T23:19:01.358Z,99829.95
2018-11-29T23:21:31.168Z,99815.16
2018-11-29T23:24:01.514Z,99812.09
2018-11-29T23:26:31.340Z,99816.77
2018-11-29T23:29:01.808Z,99812.63
2018-11-29T23:31:31.662Z,99818.30
2018-11-29T23:34:01.902Z,99811.39
2018-11-29T23:36:31.638Z,99825.43
2018-11-29T23:39:01.883Z,99817.69
2018-11-29T23:41:32.737Z,99820.33
2018-11-29T23:44:02.838Z,99808.64
2018-11-29T23:46:33.442Z,99802.00
2018-11-29T23:49:03.507Z,99808.31
2018-11-29T23:51:33.573Z,99798.77
2018-11-29T23:54:03.810Z,99792.12
2018-11-29T23:56:33.740Z,99801.50
2018-11-29T23:59:06.044Z,99800.88
